Ytteroyane Fyr, Norway

4:50 PM CEST on July 24, 2016 (GMT +0200)
Floro | | Change Station

Elev 30 ft 61.58 °N, 5.02 °E | Updated 30 minutes ago

Partly Cloudy
Partly Cloudy
64 °F
Feels Like 64 °F
N
7
Wind Variable Wind from West

Today
High -- | Low -- °F
--% Chance of Precip.
Yesterday
High -- | Low -- °F
Precip. -- in
Pressure 30.09 in
Visibility 6.2 miles
Clouds Few 700 ft
Few 2200 ft
Dew Point 57 °F
Humidity 77%
Rainfall 0.00 in
Snow Depth Not available.
4:51 AM 10:42 PM
Waning Gibbous, 75% visible
METAR ENFL 241420Z 26006KT 220V340 9999 FEW007 FEW022TCU 18/14 Q1019
Pressure 30.09 in
Visibility 6.2 miles
Clouds Few 700 ft
Few 2200 ft
Dew Point 57 °F
Humidity 77%
Rainfall 0.00 in
Snow Depth Not available.
4:51 AM 10:42 PM
Waning Gibbous, 75% visible
METAR ENFL 241420Z 26006KT 220V340 9999 FEW007 FEW022TCU 18/14 Q1019

10-Day Weather Forecast

×

Almanac

Astronomy

Jul. 24, 2016 Rise Set
Actual Time
Civil Twilight
Nautical Twilight
Astronomical Twilight
Moon
Length of Visible Light
Length of Day
Tomorrow will be .
, % of the Moon is Illuminated

Today's Extremes

Country Highs Country Lows

Community

WunderPhotos

Upload Photos

1,927,071 photos uploaded!

WunderBlog® & News

Nearby

Air Quality

  Air Quality AQ Index Pollutant
Not available.

Snow Depth

Station Depth Elevation

Earthquake Activity

City Distance Mag. Time & Date
Minimum magnitude displayed is 2.5.

Coastal Water Temperatures

Place Temperature

Stations

Nearby Weather Stations

Station Location Temp. Windchill Dew Point Humidity Wind Precip. Elev Updated Type